• Join FlightAware (Why Join?)
  • Login
  • US Flag 
Rudolph Flight #1: Arrived! 
11:59PM EST


 

Airport Tracker/Info


-or-


 

Live Flight TrackerFlight Track Log ✈ UJC7 ✈ 01-May-2012 ✈ KCKV - KCAK

Flight Track Log - Related Links

Times and Time Zones

All times are in EDT time to prevent confusion due to time zone crossing. See the UJC7 flight status page for this flight to view local times or setup timezone preferences in your user account.

Time Position Orientation Groundspeed Altitude Reporting Facility
EDT Latitude Longitude Course Direction KTS MPH feet Rate Location/Type
11:53AM 36.6094 -87.4153 160° South 177 204 1,100  Level Memphis Center
11:54AM 36.5778 -87.4008 65° Northeast 197 227 3,200 3,300 Climbing Memphis Center
11:56AM 36.6364 -87.2461 48° Northeast 271 312 9,500 3,120 Climbing Memphis Center
11:57AM 36.7008 -87.1558 50° Northeast 323 372 12,500 2,400 Climbing Memphis Center
11:59AM 36.8272 -86.9692 49° Northeast 372 428 16,700 1,980 Climbing Memphis Center
12:00PM 36.8994 -86.8650 51° Northeast 383 441 18,600 1,980 Climbing Memphis Center
12:01PM 36.9672 -86.7608 50° Northeast 383 441 20,700 1,860 Climbing Memphis Center
12:02PM 37.0392 -86.6536 49° Northeast 388 447 22,400 1,620 Climbing Memphis Center
12:03PM 37.1131 -86.5486 58° Northeast 394 453 24,000 1,440 Climbing Memphis Center
12:05PM 37.2150 -86.3450 59° Northeast 407 468 26,400 1,440 Climbing Indianapolis Center
12:06PM 37.2786 -86.2142 60° Northeast 402 463 27,900 1,260 Climbing Indianapolis Center
12:07PM 37.3333 -86.0933 61° Northeast 397 457 29,000 1,260 Climbing Indianapolis Center
12:08PM 37.3881 -85.9697 61° Northeast 397 457 30,500 960 Climbing Indianapolis Center
12:09PM 37.4406 -85.8511 59° Northeast 392 451 31,000 240 Climbing Indianapolis Center
12:10PM 37.4972 -85.7325 42° Northeast 392 451 31,000  Level Indianapolis Center
12:11PM 37.5803 -85.6378 41° Northeast 392 451 31,000  Level Indianapolis Center
12:12PM 37.6631 -85.5458 41° Northeast 392 451 31,000  Level Indianapolis Center
12:13PM 37.7481 -85.4508 43° Northeast 397 457 31,000  Level Indianapolis Center
12:14PM 37.8289 -85.3556 43° Northeast 402 463 31,000  Level Indianapolis Center
12:15PM 37.9075 -85.2628 41° Northeast 395 455 31,000  Level Indianapolis Center
12:16PM 37.9964 -85.1647 42° Northeast 400 460 31,000  Level Indianapolis Center
12:17PM 38.0792 -85.0714 42° Northeast 400 460 31,000  Level Indianapolis Center
12:18PM 38.1617 -84.9756 43° Northeast 394 453 31,000  Level Indianapolis Center
12:19PM 38.2419 -84.8792 42° Northeast 394 453 31,000  Level Indianapolis Center
12:20PM 38.3264 -84.7828 43° Northeast 399 459 31,000  Level Indianapolis Center
12:21PM 38.4108 -84.6808 41° Northeast 399 459 31,000  Level Indianapolis Center
12:22PM 38.4972 -84.5839 43° Northeast 399 459 31,000  Level Indianapolis Center
12:23PM 38.5817 -84.4842 43° Northeast 399 459 31,000  Level Indianapolis Center
12:24PM 38.6658 -84.3842 44° Northeast 404 465 31,000  Level Indianapolis Center
12:25PM 38.7478 -84.2839 42° Northeast 395 455 31,000  Level Indianapolis Center
12:26PM 38.8317 -84.1861 44° Northeast 395 455 31,000  Level Indianapolis Center
12:27PM 38.9050 -84.0961 42° Northeast 395 455 31,000  Level Indianapolis Center
12:28PM 38.9911 -83.9953 43° Northeast 401 461 31,000 -540 Level Indianapolis Center
12:29PM 39.0706 -83.8994 42° Northeast 396 456 30,000 -1,200 Descending Indianapolis Center
12:30PM 39.1500 -83.8061 45° Northeast 389 448 28,600 -1,500 Descending Indianapolis Center
12:31PM 39.2275 -83.7072 42° Northeast 389 448 27,100 -1,500 Descending Indianapolis Center
12:32PM 39.3047 -83.6161 43° Northeast 384 442 25,600 -1,080 Descending Indianapolis Center
12:33PM 39.3881 -83.5142 43° Northeast 393 452 25,000 -420 Descending Indianapolis Center
12:34PM 39.4714 -83.4117 43° Northeast 402 463 24,800 -540 Descending Indianapolis Center
12:35PM 39.5628 -83.3011 43° Northeast 407 468 24,000 -420 Descending Indianapolis Center
12:36PM 39.6503 -83.1958 44° Northeast 407 468 24,000 -360 Level Indianapolis Center
12:37PM 39.7353 -83.0900 44° Northeast 421 484 23,300 -1,200 Descending Indianapolis Center
12:38PM 39.8203 -82.9839 43° Northeast 421 484 21,700 -1,680 Descending Indianapolis Center
12:39PM 39.9053 -82.8803 43° Northeast 421 484 20,000 -1,560 Descending Indianapolis Center
12:40PM 39.9881 -82.7794 44° Northeast 416 479 18,600 -1,320 Descending Indianapolis Center
12:41PM 40.0664 -82.6808 43° Northeast 397 457 17,400 -1,500 Descending Indianapolis Center
12:42PM 40.1450 -82.5847 44° Northeast 392 451 15,600 -1,920 Descending Indianapolis Center
12:43PM 40.2233 -82.4858 46° Northeast 392 451 13,600 -1,920 Descending Indianapolis Center
12:44PM 40.2953 -82.3894 44° Northeast 385 443 11,800 -1,740 Descending Indianapolis Center
12:45PM 40.3653 -82.3011 43° Northeast 366 421 10,200 -1,500 Descending Indianapolis Center
12:46PM 40.4311 -82.2208 45° Northeast 327 376 8,800 -1,380 Descending Indianapolis Center
12:47PM 40.4906 -82.1433 53° Northeast 310 357 7,500 -1,320 Descending Indianapolis Center
12:54PM 40.9000 -81.4333 333° Northwest  Level FlightAware Approximate
12:55PM 40.9901 -81.4951 153° Southeast  Level Estimated
12:56PM 40.9000 -81.4333 180° South  Level Estimated
12:57PM 40.9000 -81.4333 333° Northwest  Level FlightAware Approximate
12:58PM 40.9901 -81.4951 333° Northwest  Level Estimated